createdAt,value
2019-03-31T00:01:08.204Z,99873.00
2019-03-31T00:03:09.001Z,99874.00
2019-03-31T00:05:15.104Z,99880.00
2019-03-31T00:07:21.074Z,99876.00
2019-03-31T00:09:27.310Z,99879.00
2019-03-31T00:11:33.791Z,99871.00
2019-03-31T00:13:40.399Z,99876.00
2019-03-31T00:15:46.906Z,99875.00
2019-03-31T00:17:53.294Z,99874.00
2019-03-31T00:19:59.063Z,99871.00
2019-03-31T00:22:05.506Z,99875.00
2019-03-31T00:24:11.863Z,99876.00
2019-03-31T00:26:18.107Z,99877.00
2019-03-31T00:28:24.170Z,99873.00
2019-03-31T00:30:30.197Z,99875.00
2019-03-31T00:32:36.261Z,99876.00
2019-03-31T00:34:42.945Z,99881.00
2019-03-31T00:36:49.619Z,99883.00
2019-03-31T00:38:55.612Z,99878.00
2019-03-31T00:41:02.445Z,99880.00
2019-03-31T00:43:08.644Z,99887.00
2019-03-31T00:45:14.844Z,99889.00
2019-03-31T00:47:21.131Z,99886.00
2019-03-31T00:49:26.908Z,99887.00
2019-03-31T00:51:32.755Z,99888.00
2019-03-31T00:53:39.079Z,99879.00
2019-03-31T00:55:45.124Z,99886.00
2019-03-31T00:57:51.149Z,99884.00
2019-03-31T00:59:57.117Z,99887.00
2019-03-31T01:02:10.570Z,99887.00
2019-03-31T01:04:21.272Z,99889.00
2019-03-31T01:06:31.309Z,99884.00
2019-03-31T01:08:40.666Z,99884.00
2019-03-31T01:10:46.910Z,99878.00
2019-03-31T01:12:52.755Z,99882.00
2019-03-31T01:14:58.594Z,99876.00
2019-03-31T01:17:07.632Z,99883.00
2019-03-31T01:19:14.386Z,99878.00
2019-03-31T01:21:20.522Z,99884.00
2019-03-31T01:23:26.996Z,99880.00
2019-03-31T01:25:33.552Z,99885.00
2019-03-31T01:27:39.613Z,99884.00
2019-03-31T01:29:45.320Z,99875.00
2019-03-31T01:31:51.452Z,99890.00
2019-03-31T01:33:57.423Z,99889.00
2019-03-31T01:36:03.651Z,99888.00
2019-03-31T01:38:09.779Z,99883.00
2019-03-31T01:40:15.706Z,99895.00
2019-03-31T01:42:21.644Z,99893.00
2019-03-31T01:44:27.913Z,99890.00
2019-03-31T01:46:34.292Z,99893.00
2019-03-31T01:48:40.287Z,99886.00
2019-03-31T01:50:48.366Z,99892.00
2019-03-31T01:52:54.983Z,99895.00
2019-03-31T01:55:01.072Z,99884.00
2019-03-31T01:57:07.091Z,99890.00
2019-03-31T01:59:12.769Z,99899.00
2019-03-31T02:01:20.887Z,99883.00
2019-03-31T02:03:27.308Z,99904.00
2019-03-31T02:05:33.062Z,99891.00
2019-03-31T02:07:39.158Z,99897.00
2019-03-31T02:09:45.259Z,99894.00
2019-03-31T02:11:51.470Z,99875.00
2019-03-31T02:13:57.505Z,99885.00
2019-03-31T02:16:04.057Z,99886.00
2019-03-31T02:18:09.892Z,99892.00
2019-03-31T02:20:16.055Z,99886.00
2019-03-31T02:22:22.608Z,99897.00
2019-03-31T02:24:28.366Z,99905.00
2019-03-31T02:26:34.183Z,99892.00
2019-03-31T02:28:40.372Z,99891.00
2019-03-31T02:30:46.293Z,99891.00
2019-03-31T02:32:52.608Z,99891.00
2019-03-31T02:34:59.296Z,99887.00
2019-03-31T02:37:05.066Z,99885.00
2019-03-31T02:39:10.835Z,99883.00
2019-03-31T02:41:16.669Z,99891.00
2019-03-31T02:43:23.548Z,99886.00
2019-03-31T02:45:29.654Z,99887.00
2019-03-31T02:47:36.342Z,99886.00
2019-03-31T02:49:42.029Z,99891.00
2019-03-31T02:51:47.846Z,99888.00
2019-03-31T02:53:53.777Z,99882.00
2019-03-31T02:56:02.122Z,99884.00
2019-03-31T02:58:10.008Z,99886.00
2019-03-31T03:00:15.925Z,99882.00
2019-03-31T03:02:40.611Z,99875.00
2019-03-31T03:04:35.183Z,99879.00
2019-03-31T03:06:42.840Z,99886.00
2019-03-31T03:08:51.739Z,99891.00
2019-03-31T03:11:01.308Z,99900.00
2019-03-31T03:13:10.434Z,99899.00
2019-03-31T03:15:28.004Z,99896.00
2019-03-31T03:17:34.485Z,99897.00
2019-03-31T03:19:40.921Z,99885.00
2019-03-31T03:21:46.869Z,99891.00
2019-03-31T03:23:53.276Z,99889.00
2019-03-31T03:26:00.133Z,99889.00
2019-03-31T03:28:05.883Z,99891.00
2019-03-31T03:30:12.072Z,99896.00
2019-03-31T03:32:18.083Z,99890.00
2019-03-31T03:34:24.879Z,99899.00
2019-03-31T03:36:30.842Z,99893.00
2019-03-31T03:38:36.907Z,99899.00
2019-03-31T03:40:42.977Z,99900.00
2019-03-31T03:42:49.272Z,99905.00
2019-03-31T03:44:55.332Z,99898.00
2019-03-31T03:47:01.626Z,99912.00
2019-03-31T03:49:07.717Z,99907.00
2019-03-31T03:51:13.620Z,99917.00
2019-03-31T03:53:20.206Z,99913.00
2019-03-31T03:55:26.750Z,99917.00
2019-03-31T03:57:32.420Z,99913.00
2019-03-31T03:59:38.120Z,99911.00
2019-03-31T04:01:43.799Z,99907.00
2019-03-31T04:03:49.499Z,99901.00
2019-03-31T04:05:55.415Z,99906.00
2019-03-31T04:08:01.752Z,99913.00
2019-03-31T04:10:30.866Z,99911.00
2019-03-31T04:12:55.511Z,99912.00
2019-03-31T04:15:01.196Z,99915.00
2019-03-31T04:17:06.942Z,99909.00
2019-03-31T04:19:12.626Z,99917.00
2019-03-31T04:21:18.711Z,99919.00
2019-03-31T04:23:24.634Z,99926.00
2019-03-31T04:25:30.407Z,99926.00
2019-03-31T04:27:36.073Z,99931.00
2019-03-31T04:29:41.825Z,99923.00
2019-03-31T04:31:47.907Z,99927.00
2019-03-31T04:33:53.604Z,99926.00
2019-03-31T04:35:59.671Z,99930.00
2019-03-31T04:38:05.442Z,99923.00
2019-03-31T04:40:11.555Z,99936.00
2019-03-31T04:42:17.909Z,99937.00
2019-03-31T04:44:23.759Z,99939.00
2019-03-31T04:46:29.668Z,99947.00
2019-03-31T04:48:35.849Z,99939.00
2019-03-31T04:50:42.391Z,99939.00
2019-03-31T04:52:48.806Z,99941.00
2019-03-31T04:54:54.639Z,99939.00
2019-03-31T04:57:00.654Z,99951.00
2019-03-31T04:59:06.791Z,99946.00
2019-03-31T05:01:12.723Z,99945.00
2019-03-31T05:03:18.700Z,99963.00
2019-03-31T05:05:25.165Z,99966.00
2019-03-31T05:07:32.457Z,99967.00
2019-03-31T05:09:38.241Z,99953.00
2019-03-31T05:11:44.332Z,99968.00
2019-03-31T05:13:50.015Z,99968.00
2019-03-31T05:15:56.145Z,99968.00
2019-03-31T05:18:02.305Z,99975.00
2019-03-31T05:20:08.533Z,99983.00
2019-03-31T05:22:15.889Z,99974.00
2019-03-31T05:24:21.648Z,99978.00
2019-03-31T05:26:27.429Z,99974.00
2019-03-31T05:28:33.630Z,99977.00
2019-03-31T05:30:39.811Z,99976.00
2019-03-31T05:32:45.658Z,99990.00
2019-03-31T05:34:51.736Z,99996.00
2019-03-31T05:36:58.152Z,99998.00
2019-03-31T05:39:06.105Z,99996.00
2019-03-31T05:41:12.006Z,99992.00
2019-03-31T05:43:17.740Z,99992.00
2019-03-31T05:45:23.843Z,100001.00
2019-03-31T05:47:29.611Z,99991.00
2019-03-31T05:49:35.714Z,99989.00
2019-03-31T05:51:41.862Z,99994.00
2019-03-31T05:53:47.915Z,99996.00
2019-03-31T05:55:53.757Z,99993.00
2019-03-31T05:57:59.993Z,99999.00
2019-03-31T06:00:06.703Z,100001.00
2019-03-31T06:02:12.818Z,100011.00
2019-03-31T06:04:32.275Z,100006.00
2019-03-31T06:06:27.661Z,100005.00
2019-03-31T06:08:33.700Z,100006.00
2019-03-31T06:10:39.804Z,99999.00
2019-03-31T06:12:45.919Z,100003.00
2019-03-31T06:14:52.370Z,100012.00
2019-03-31T06:16:58.826Z,100009.00
2019-03-31T06:19:04.595Z,100008.00
2019-03-31T06:21:10.766Z,100001.00
2019-03-31T06:23:17.176Z,100012.00
2019-03-31T06:25:23.025Z,100010.00
2019-03-31T06:27:29.066Z,100004.00
2019-03-31T06:29:35.224Z,100006.00
2019-03-31T06:31:40.941Z,100003.00
2019-03-31T06:33:47.132Z,100013.00
2019-03-31T06:35:53.727Z,100015.00
2019-03-31T06:38:00.359Z,100024.00
2019-03-31T06:40:07.210Z,100008.00
2019-03-31T06:42:13.245Z,100012.00
2019-03-31T06:44:19.351Z,100020.00
2019-03-31T06:46:25.084Z,100020.00
2019-03-31T06:48:31.234Z,100010.00
2019-03-31T06:50:37.987Z,100025.00
2019-03-31T06:52:44.568Z,100021.00
2019-03-31T06:54:50.364Z,100029.00
2019-03-31T06:56:56.463Z,100017.00
2019-03-31T06:59:02.204Z,100027.00
2019-03-31T07:01:08.352Z,100023.00
2019-03-31T07:03:14.502Z,100033.00
2019-03-31T07:05:20.297Z,100037.00
2019-03-31T07:07:26.666Z,100034.00
2019-03-31T07:09:32.753Z,100045.00
2019-03-31T07:11:38.564Z,100048.00
2019-03-31T07:13:44.582Z,100052.00
2019-03-31T07:15:50.759Z,100043.00
2019-03-31T07:17:56.461Z,100050.00
2019-03-31T07:20:02.208Z,100050.00
2019-03-31T07:22:09.116Z,100040.00
2019-03-31T07:24:15.112Z,100050.00
2019-03-31T07:26:21.601Z,100047.00
2019-03-31T07:28:27.468Z,100052.00
2019-03-31T07:30:33.602Z,100061.00
2019-03-31T07:32:40.170Z,100059.00
2019-03-31T07:34:49.258Z,100058.00
2019-03-31T07:36:55.294Z,100050.00
2019-03-31T07:39:02.006Z,100046.00
2019-03-31T07:41:13.017Z,100048.00
2019-03-31T07:43:15.934Z,100051.00
2019-03-31T07:45:22.225Z,100061.00
2019-03-31T07:47:28.400Z,100062.00
2019-03-31T07:49:34.502Z,100068.00
2019-03-31T07:51:40.209Z,100078.00
2019-03-31T07:53:46.351Z,100078.00
2019-03-31T07:55:53.033Z,100085.00
2019-03-31T07:57:58.726Z,100075.00
2019-03-31T08:00:06.242Z,100083.00
2019-03-31T08:02:12.074Z,100077.00
2019-03-31T08:04:18.072Z,100084.00
2019-03-31T08:06:24.698Z,100081.00
2019-03-31T08:08:30.398Z,100077.00
2019-03-31T08:10:36.397Z,100081.00
2019-03-31T08:12:42.573Z,100076.00
2019-03-31T08:14:48.410Z,100074.00
2019-03-31T08:16:55.017Z,100079.00
2019-03-31T08:19:01.378Z,100085.00
2019-03-31T08:21:08.143Z,100082.00
2019-03-31T08:23:14.175Z,100090.00
2019-03-31T08:25:20.857Z,100084.00
2019-03-31T08:27:26.634Z,100090.00
2019-03-31T08:29:32.514Z,100104.00
2019-03-31T08:31:38.693Z,100101.00
2019-03-31T08:33:44.827Z,100103.00
2019-03-31T08:35:50.890Z,100102.00
2019-03-31T08:37:56.761Z,100110.00
2019-03-31T08:40:02.807Z,100109.00
2019-03-31T08:42:09.704Z,100116.00
2019-03-31T08:44:16.142Z,100111.00
2019-03-31T08:46:21.906Z,100112.00
2019-03-31T08:48:28.015Z,100117.00
2019-03-31T08:50:35.134Z,100113.00
2019-03-31T08:52:41.201Z,100119.00
2019-03-31T08:54:47.432Z,100126.00
2019-03-31T08:56:53.528Z,100120.00
2019-03-31T08:58:59.665Z,100125.00
2019-03-31T09:01:10.715Z,100125.00
2019-03-31T09:03:16.928Z,100135.00
2019-03-31T09:05:23.010Z,100129.00
2019-03-31T09:07:29.403Z,100131.00
2019-03-31T09:09:35.120Z,100129.00
2019-03-31T09:11:41.006Z,100130.00
2019-03-31T09:13:46.745Z,100138.00
2019-03-31T09:15:52.478Z,100143.00
2019-03-31T09:17:58.293Z,100140.00
2019-03-31T09:20:04.202Z,100142.00
2019-03-31T09:22:10.083Z,100144.00
2019-03-31T09:24:15.971Z,100141.00
2019-03-31T09:26:22.417Z,100134.00
2019-03-31T09:28:29.221Z,100143.00
2019-03-31T09:30:35.160Z,100147.00
2019-03-31T09:32:41.357Z,100148.00
2019-03-31T09:34:47.509Z,100143.00
2019-03-31T09:36:53.352Z,100146.00
2019-03-31T09:38:59.399Z,100150.00
2019-03-31T09:41:06.325Z,100149.00
2019-03-31T09:43:12.574Z,100151.00
2019-03-31T09:45:18.944Z,100164.00
2019-03-31T09:47:26.091Z,100148.00
2019-03-31T09:49:32.320Z,100148.00
2019-03-31T09:51:38.138Z,100153.00
2019-03-31T09:53:43.949Z,100147.00
2019-03-31T09:55:50.160Z,100160.00
2019-03-31T09:57:56.826Z,100160.00
2019-03-31T10:00:02.916Z,100154.00
2019-03-31T10:02:09.989Z,100164.00
2019-03-31T10:04:15.964Z,100166.00
2019-03-31T10:06:30.066Z,100164.00
2019-03-31T10:08:29.438Z,100163.00
2019-03-31T10:10:35.801Z,100159.00
2019-03-31T10:12:41.568Z,100160.00
2019-03-31T10:14:47.517Z,100167.00
2019-03-31T10:16:53.607Z,100163.00
2019-03-31T10:18:59.549Z,100163.00
2019-03-31T10:21:05.394Z,100164.00
2019-03-31T10:23:11.438Z,100166.00
2019-03-31T10:25:17.559Z,100170.00
2019-03-31T10:27:23.577Z,100166.00
2019-03-31T10:29:29.568Z,100178.00
2019-03-31T10:31:35.744Z,100182.00
2019-03-31T10:33:41.542Z,100170.00
2019-03-31T10:35:47.732Z,100176.00
2019-03-31T10:37:54.420Z,100171.00
2019-03-31T10:40:00.387Z,100165.00
2019-03-31T10:42:06.198Z,100168.00
2019-03-31T10:44:12.296Z,100167.00
2019-03-31T10:46:18.683Z,100172.00
2019-03-31T10:48:25.356Z,100177.00
2019-03-31T10:50:31.738Z,100176.00
2019-03-31T10:52:37.676Z,100178.00
2019-03-31T10:54:43.922Z,100177.00
2019-03-31T10:56:49.766Z,100178.00
2019-03-31T10:58:55.837Z,100192.00
2019-03-31T11:01:02.237Z,100189.00
2019-03-31T11:03:10.826Z,100182.00
2019-03-31T11:05:16.789Z,100179.00
2019-03-31T11:07:22.789Z,100179.00
2019-03-31T11:09:28.511Z,100176.00
2019-03-31T11:11:34.316Z,100174.00
2019-03-31T11:13:40.743Z,100176.00
2019-03-31T11:15:47.148Z,100181.00
2019-03-31T11:17:53.271Z,100180.00
2019-03-31T11:20:00.815Z,100180.00
2019-03-31T11:22:11.870Z,100187.00
2019-03-31T11:24:18.545Z,100177.00
2019-03-31T11:26:24.952Z,100181.00
2019-03-31T11:28:31.193Z,100174.00
2019-03-31T11:30:37.360Z,100169.00
2019-03-31T11:32:43.175Z,100174.00
2019-03-31T11:34:49.327Z,100177.00
2019-03-31T11:36:55.382Z,100187.00
2019-03-31T11:39:01.231Z,100171.00
2019-03-31T11:41:07.007Z,100178.00
2019-03-31T11:43:13.813Z,100172.00
2019-03-31T11:45:19.966Z,100174.00
2019-03-31T11:47:26.090Z,100189.00
2019-03-31T11:49:32.075Z,100176.00
2019-03-31T11:51:38.434Z,100171.00
2019-03-31T11:53:44.431Z,100178.00
2019-03-31T11:55:50.570Z,100173.00
2019-03-31T11:57:56.339Z,100171.00
2019-03-31T12:00:02.148Z,100175.00
2019-03-31T12:02:08.857Z,100176.00
2019-03-31T12:04:15.187Z,100165.00
2019-03-31T12:06:21.272Z,100171.00
2019-03-31T12:08:26.956Z,100170.00
2019-03-31T12:10:32.680Z,100174.00
2019-03-31T12:12:38.652Z,100168.00
2019-03-31T12:14:59.533Z,100171.00
2019-03-31T12:16:53.115Z,100176.00
2019-03-31T12:18:59.166Z,100169.00
2019-03-31T12:21:05.088Z,100176.00
2019-03-31T12:23:10.931Z,100166.00
2019-03-31T12:25:19.657Z,100173.00
2019-03-31T12:27:24.390Z,100166.00
2019-03-31T12:29:30.496Z,100169.00
2019-03-31T12:31:37.268Z,100177.00
2019-03-31T12:33:43.753Z,100162.00
2019-03-31T12:35:49.793Z,100166.00
2019-03-31T12:37:55.862Z,100169.00
2019-03-31T12:40:01.949Z,100161.00
2019-03-31T12:42:07.706Z,100155.00
2019-03-31T12:44:13.453Z,100169.00
2019-03-31T12:46:19.591Z,100163.00
2019-03-31T12:48:25.422Z,100162.00
2019-03-31T12:50:31.202Z,100162.00
2019-03-31T12:52:46.715Z,100162.00
2019-03-31T12:54:45.399Z,100164.00
2019-03-31T12:56:51.226Z,100160.00
2019-03-31T12:58:57.217Z,100163.00
2019-03-31T13:01:03.395Z,100158.00
2019-03-31T13:03:09.301Z,100157.00
2019-03-31T13:05:15.378Z,100146.00
2019-03-31T13:07:21.429Z,100146.00
2019-03-31T13:09:27.123Z,100150.00
2019-03-31T13:11:32.925Z,100152.00
2019-03-31T13:13:39.057Z,100149.00
2019-03-31T13:15:45.100Z,100147.00
2019-03-31T13:17:51.042Z,100158.00
2019-03-31T13:19:57.136Z,100149.00
2019-03-31T13:22:03.934Z,100152.00
2019-03-31T13:24:09.828Z,100155.00
2019-03-31T13:26:15.602Z,100158.00
2019-03-31T13:28:21.900Z,100148.00
2019-03-31T13:30:28.147Z,100145.00
2019-03-31T13:32:34.520Z,100138.00
2019-03-31T13:34:40.413Z,100141.00
2019-03-31T13:36:46.173Z,100140.00
2019-03-31T13:38:52.528Z,100133.00
2019-03-31T13:40:58.624Z,100139.00
2019-03-31T13:43:04.845Z,100136.00
2019-03-31T13:45:11.936Z,100136.00
2019-03-31T13:47:17.772Z,100133.00
2019-03-31T13:49:24.213Z,100132.00
2019-03-31T13:51:30.189Z,100135.00
2019-03-31T13:53:36.560Z,100132.00
2019-03-31T13:55:42.979Z,100125.00
2019-03-31T13:57:49.686Z,100121.00
2019-03-31T13:59:56.767Z,100117.00
2019-03-31T14:02:02.725Z,100128.00
2019-03-31T14:04:08.595Z,100121.00
2019-03-31T14:06:14.705Z,100113.00
2019-03-31T14:08:25.860Z,100116.00
2019-03-31T14:10:28.488Z,100110.00
2019-03-31T14:12:35.178Z,100114.00
2019-03-31T14:14:41.051Z,100101.00
2019-03-31T14:16:46.758Z,100098.00
2019-03-31T14:18:53.124Z,100104.00
2019-03-31T14:20:59.244Z,100104.00
2019-03-31T14:23:05.191Z,100105.00
2019-03-31T14:25:11.109Z,100091.00
2019-03-31T14:27:16.806Z,100108.00
2019-03-31T14:29:23.164Z,100108.00
2019-03-31T14:31:29.597Z,100107.00
2019-03-31T14:33:35.385Z,100100.00
2019-03-31T14:35:41.739Z,100117.00
2019-03-31T14:37:48.875Z,100105.00
2019-03-31T14:39:54.686Z,100115.00
2019-03-31T14:42:00.771Z,100113.00
2019-03-31T14:44:06.830Z,100118.00
2019-03-31T14:46:14.673Z,100102.00
2019-03-31T14:48:20.373Z,100104.00
2019-03-31T14:50:35.013Z,100095.00
2019-03-31T14:52:40.779Z,100095.00
2019-03-31T14:54:46.593Z,100096.00
2019-03-31T14:56:52.654Z,100091.00
2019-03-31T14:58:58.845Z,100097.00
2019-03-31T15:01:04.693Z,100093.00
2019-03-31T15:03:10.865Z,100085.00
2019-03-31T15:05:17.040Z,100097.00
2019-03-31T15:07:23.612Z,100095.00
2019-03-31T15:09:29.696Z,100096.00
2019-03-31T15:11:38.203Z,100093.00
2019-03-31T15:13:46.550Z,100103.00
2019-03-31T15:15:54.880Z,100096.00
2019-03-31T15:18:01.762Z,100095.00
2019-03-31T15:20:08.589Z,100107.00
2019-03-31T15:22:14.964Z,100087.00
2019-03-31T15:24:20.750Z,100093.00
2019-03-31T15:26:27.245Z,100096.00
2019-03-31T15:28:33.688Z,100095.00
2019-03-31T15:30:39.950Z,100093.00
2019-03-31T15:32:45.704Z,100094.00
2019-03-31T15:34:52.083Z,100091.00
2019-03-31T15:36:58.480Z,100091.00
2019-03-31T15:39:09.212Z,100095.00
2019-03-31T15:41:21.035Z,100090.00
2019-03-31T15:43:22.502Z,100094.00
2019-03-31T15:45:28.517Z,100094.00
2019-03-31T15:47:34.606Z,100101.00
2019-03-31T15:49:40.439Z,100100.00
2019-03-31T15:51:46.104Z,100092.00
2019-03-31T15:53:51.866Z,100101.00
2019-03-31T15:55:57.650Z,100093.00
2019-03-31T15:58:05.379Z,100092.00
2019-03-31T16:00:12.613Z,100097.00
2019-03-31T16:02:18.918Z,100094.00
2019-03-31T16:04:25.431Z,100098.00
2019-03-31T16:06:31.543Z,100102.00
2019-03-31T16:08:37.082Z,100097.00
2019-03-31T16:10:42.560Z,100108.00
2019-03-31T16:12:47.883Z,100099.00
2019-03-31T16:14:53.322Z,100099.00
2019-03-31T16:16:58.823Z,100100.00
2019-03-31T16:19:04.126Z,100107.00
2019-03-31T16:21:09.734Z,100104.00
2019-03-31T16:23:14.689Z,100104.00
2019-03-31T16:25:27.687Z,100093.00
2019-03-31T16:27:32.607Z,100108.00
2019-03-31T16:29:37.850Z,100108.00
2019-03-31T16:31:43.383Z,100102.00
2019-03-31T16:33:48.510Z,100108.00
2019-03-31T16:35:54.129Z,100101.00
2019-03-31T16:37:59.789Z,100093.00
2019-03-31T16:40:05.298Z,100090.00
2019-03-31T16:42:10.706Z,100095.00
2019-03-31T16:44:15.729Z,100107.00
2019-03-31T16:46:20.628Z,100101.00
2019-03-31T16:48:25.504Z,100102.00
2019-03-31T16:50:30.690Z,100095.00
2019-03-31T16:52:35.727Z,100097.00
2019-03-31T16:54:41.197Z,100091.00
2019-03-31T16:56:46.962Z,100100.00
2019-03-31T16:58:52.455Z,100108.00
2019-03-31T17:00:57.562Z,100103.00
2019-03-31T17:03:03.038Z,100102.00
2019-03-31T17:05:20.989Z,100105.00
2019-03-31T17:07:16.012Z,100105.00
2019-03-31T17:09:20.889Z,100110.00
2019-03-31T17:11:26.157Z,100115.00
2019-03-31T17:13:31.772Z,100108.00
2019-03-31T17:15:36.947Z,100111.00
2019-03-31T17:17:42.117Z,100105.00
2019-03-31T17:19:47.555Z,100114.00
2019-03-31T17:21:53.032Z,100108.00
2019-03-31T17:23:58.283Z,100103.00
2019-03-31T17:26:03.390Z,100119.00
2019-03-31T17:28:10.338Z,100111.00
2019-03-31T17:30:15.538Z,100112.00
2019-03-31T17:32:20.903Z,100113.00
2019-03-31T17:34:26.170Z,100113.00
2019-03-31T17:36:32.214Z,100114.00
2019-03-31T17:38:37.458Z,100122.00
2019-03-31T17:40:42.372Z,100105.00
2019-03-31T17:42:47.625Z,100104.00
2019-03-31T17:44:52.569Z,100100.00
2019-03-31T17:46:57.735Z,100111.00
2019-03-31T17:49:02.830Z,100111.00
2019-03-31T17:51:07.801Z,100124.00
2019-03-31T17:53:12.974Z,100116.00
2019-03-31T17:55:18.785Z,100119.00
2019-03-31T17:57:23.988Z,100118.00
2019-03-31T17:59:28.944Z,100113.00
2019-03-31T18:01:34.318Z,100119.00
2019-03-31T18:03:40.062Z,100118.00
2019-03-31T18:05:45.194Z,100112.00
2019-03-31T18:07:50.763Z,100119.00
2019-03-31T18:09:55.971Z,100119.00
2019-03-31T18:12:00.942Z,100120.00
2019-03-31T18:14:06.947Z,100128.00
2019-03-31T18:16:12.216Z,100131.00
2019-03-31T18:18:17.776Z,100135.00
2019-03-31T18:20:23.055Z,100133.00
2019-03-31T18:22:27.979Z,100132.00
2019-03-31T18:24:33.562Z,100136.00
2019-03-31T18:26:38.491Z,100128.00
2019-03-31T18:28:43.999Z,100142.00
2019-03-31T18:30:49.514Z,100140.00
2019-03-31T18:32:54.904Z,100139.00
2019-03-31T18:35:00.357Z,100142.00
2019-03-31T18:37:05.747Z,100146.00
2019-03-31T18:39:11.368Z,100144.00
2019-03-31T18:41:16.714Z,100154.00
2019-03-31T18:43:21.924Z,100161.00
2019-03-31T18:45:26.955Z,100161.00
2019-03-31T18:47:32.478Z,100154.00
2019-03-31T18:49:37.371Z,100168.00
2019-03-31T18:51:42.319Z,100153.00
2019-03-31T18:54:25.415Z,100163.00
2019-03-31T18:57:07.725Z,100152.00
2019-03-31T18:59:37.107Z,100167.00
2019-03-31T19:02:03.154Z,100170.00
2019-03-31T19:04:19.554Z,100172.00
2019-03-31T19:06:49.053Z,100170.00
2019-03-31T19:09:12.112Z,100160.00
2019-03-31T19:11:43.469Z,100171.00
2019-03-31T19:14:22.963Z,100175.00
2019-03-31T19:16:47.086Z,100183.00
2019-03-31T19:19:11.914Z,100187.00
2019-03-31T19:21:39.257Z,100183.00
2019-03-31T19:24:07.150Z,100191.00
2019-03-31T19:26:49.890Z,100185.00
2019-03-31T19:29:23.773Z,100196.00
2019-03-31T19:32:03.487Z,100195.00
2019-03-31T19:34:27.695Z,100196.00
2019-03-31T19:37:00.887Z,100191.00
2019-03-31T19:39:43.203Z,100190.00
2019-03-31T19:41:59.313Z,100195.00
2019-03-31T19:44:26.530Z,100197.00
2019-03-31T19:46:44.736Z,100193.00
2019-03-31T19:48:59.803Z,100200.00
2019-03-31T19:51:21.000Z,100195.00
2019-03-31T19:53:45.232Z,100189.00
2019-03-31T19:56:15.723Z,100193.00
2019-03-31T19:58:33.675Z,100198.00
2019-03-31T20:00:57.921Z,100203.00
2019-03-31T20:03:21.912Z,100196.00
2019-03-31T20:05:43.319Z,100200.00
2019-03-31T20:08:05.792Z,100210.00
2019-03-31T20:10:23.445Z,100213.00
2019-03-31T20:12:47.410Z,100203.00
2019-03-31T20:15:17.740Z,100204.00
2019-03-31T20:17:29.989Z,100210.00
2019-03-31T20:19:48.354Z,100207.00
2019-03-31T20:21:59.192Z,100210.00
2019-03-31T20:24:41.415Z,100207.00
2019-03-31T20:27:04.888Z,100211.00
2019-03-31T20:29:22.181Z,100209.00
2019-03-31T20:31:51.911Z,100213.00
2019-03-31T20:34:06.679Z,100206.00
2019-03-31T20:36:32.973Z,100218.00
2019-03-31T20:38:47.261Z,100206.00
2019-03-31T20:41:11.146Z,100209.00
2019-03-31T20:43:41.482Z,100208.00
2019-03-31T20:45:47.141Z,100211.00
2019-03-31T20:47:52.395Z,100214.00
2019-03-31T20:49:57.504Z,100219.00
2019-03-31T20:52:02.686Z,100214.00
2019-03-31T20:54:08.057Z,100206.00
2019-03-31T20:56:13.582Z,100209.00
2019-03-31T20:58:18.784Z,100204.00
2019-03-31T21:00:23.957Z,100216.00
2019-03-31T21:02:29.042Z,100210.00
2019-03-31T21:04:33.919Z,100216.00
2019-03-31T21:06:38.812Z,100212.00
2019-03-31T21:08:44.155Z,100214.00
2019-03-31T21:10:49.409Z,100208.00
2019-03-31T21:12:54.642Z,100213.00
2019-03-31T21:14:59.526Z,100216.00
2019-03-31T21:17:05.055Z,100207.00
2019-03-31T21:19:09.924Z,100221.00
2019-03-31T21:21:15.062Z,100214.00
2019-03-31T21:23:20.355Z,100221.00
2019-03-31T21:25:25.254Z,100213.00
2019-03-31T21:27:30.374Z,100218.00
2019-03-31T21:29:35.835Z,100230.00
2019-03-31T21:31:41.034Z,100222.00
2019-03-31T21:33:46.321Z,100221.00
2019-03-31T21:35:51.898Z,100223.00
2019-03-31T21:37:57.266Z,100218.00
2019-03-31T21:40:02.435Z,100221.00
2019-03-31T21:42:07.368Z,100227.00
2019-03-31T21:44:12.891Z,100225.00
2019-03-31T21:46:17.823Z,100221.00
2019-03-31T21:48:22.708Z,100220.00
2019-03-31T21:50:27.578Z,100227.00
2019-03-31T21:52:33.513Z,100225.00
2019-03-31T21:54:38.654Z,100223.00
2019-03-31T21:56:43.891Z,100230.00
2019-03-31T21:58:48.767Z,100232.00
2019-03-31T22:00:56.876Z,100230.00
2019-03-31T22:03:01.757Z,100232.00
2019-03-31T22:05:07.865Z,100229.00
2019-03-31T22:07:13.060Z,100234.00
2019-03-31T22:09:18.310Z,100239.00
2019-03-31T22:11:23.246Z,100231.00
2019-03-31T22:13:28.396Z,100228.00
2019-03-31T22:15:33.371Z,100237.00
2019-03-31T22:17:38.491Z,100228.00
2019-03-31T22:19:43.757Z,100230.00
2019-03-31T22:21:49.425Z,100232.00
2019-03-31T22:23:58.174Z,100224.00
2019-03-31T22:26:02.084Z,100223.00
2019-03-31T22:28:07.039Z,100219.00
2019-03-31T22:30:12.097Z,100223.00
2019-03-31T22:32:17.146Z,100229.00
2019-03-31T22:34:22.365Z,100212.00
2019-03-31T22:36:27.498Z,100218.00
2019-03-31T22:38:32.940Z,100209.00
2019-03-31T22:40:38.964Z,100215.00
2019-03-31T22:42:44.379Z,100221.00
2019-03-31T22:44:49.579Z,100220.00
2019-03-31T22:46:54.840Z,100224.00
2019-03-31T22:48:59.819Z,100225.00
2019-03-31T22:51:04.764Z,100218.00
2019-03-31T22:53:09.992Z,100223.00
2019-03-31T22:55:14.936Z,100223.00
2019-03-31T22:57:20.125Z,100215.00
2019-03-31T22:59:25.104Z,100211.00
2019-03-31T23:01:29.965Z,100206.00
2019-03-31T23:03:37.208Z,100207.00
2019-03-31T23:05:42.187Z,100207.00
2019-03-31T23:07:47.480Z,100200.00
2019-03-31T23:09:52.361Z,100200.00
2019-03-31T23:11:57.911Z,100199.00
2019-03-31T23:14:03.168Z,100189.00
2019-03-31T23:16:08.723Z,100189.00
2019-03-31T23:18:13.990Z,100191.00
2019-03-31T23:20:19.370Z,100186.00
2019-03-31T23:22:27.582Z,100201.00
2019-03-31T23:24:31.347Z,100188.00
2019-03-31T23:26:37.148Z,100183.00
2019-03-31T23:28:48.082Z,100180.00
2019-03-31T23:30:53.604Z,100195.00
2019-03-31T23:32:58.749Z,100190.00
2019-03-31T23:35:04.076Z,100195.00
2019-03-31T23:37:09.566Z,100190.00
2019-03-31T23:39:15.147Z,100193.00
2019-03-31T23:41:20.013Z,100188.00
2019-03-31T23:43:25.178Z,100196.00
2019-03-31T23:45:32.359Z,100193.00
2019-03-31T23:47:37.918Z,100188.00
2019-03-31T23:49:43.085Z,100195.00
2019-03-31T23:51:48.436Z,100178.00
2019-03-31T23:53:53.935Z,100190.00
2019-03-31T23:55:59.337Z,100184.00
2019-03-31T23:58:04.544Z,100185.00
